createdAt,value
2023-03-28T00:02:14.648Z,18.87
2023-03-28T00:04:43.067Z,16.80
2023-03-28T00:07:11.860Z,13.17
2023-03-28T00:09:41.521Z,18.17
2023-03-28T00:12:10.109Z,10.13
2023-03-28T00:14:38.815Z,12.77
2023-03-28T00:17:07.914Z,9.73
2023-03-28T00:19:40.592Z,11.30
2023-03-28T00:22:09.210Z,10.27
2023-03-28T00:24:39.047Z,16.47
2023-03-28T00:27:09.217Z,14.03
2023-03-28T00:29:37.500Z,14.80
2023-03-28T00:32:06.692Z,10.70
2023-03-28T00:34:34.985Z,17.97
2023-03-28T00:37:03.764Z,10.33
2023-03-28T00:39:32.187Z,15.20
2023-03-28T00:42:02.800Z,14.33
2023-03-28T00:44:47.371Z,6.17
2023-03-28T00:47:36.783Z,9.10
2023-03-28T00:50:11.016Z,11.30
2023-03-28T00:52:59.570Z,14.97
2023-03-28T00:55:31.792Z,11.33
2023-03-28T00:58:17.146Z,7.30
2023-03-28T01:00:47.419Z,11.43
2023-03-28T01:03:16.771Z,10.87
2023-03-28T01:05:47.644Z,10.00
2023-03-28T01:08:19.958Z,8.50
2023-03-28T01:10:49.050Z,13.40
2023-03-28T01:13:20.266Z,7.33
2023-03-28T01:15:52.087Z,7.37
2023-03-28T01:18:23.932Z,12.03
2023-03-28T01:21:14.509Z,10.37
2023-03-28T01:24:33.244Z,4.63
2023-03-28T01:27:08.155Z,8.63
2023-03-28T01:30:07.784Z,7.77
2023-03-28T01:33:09.737Z,6.23
2023-03-28T01:36:08.633Z,6.13
2023-03-28T01:38:48.117Z,7.53
2023-03-28T01:41:23.654Z,6.63
2023-03-28T01:43:58.964Z,6.80
2023-03-28T01:46:30.878Z,8.77
2023-03-28T01:49:05.789Z,4.80
2023-03-28T01:51:51.008Z,6.90
2023-03-28T01:54:31.695Z,6.87
2023-03-28T01:57:07.341Z,7.37
2023-03-28T01:59:41.169Z,7.83
2023-03-28T02:02:20.590Z,4.80
2023-03-28T02:04:51.125Z,11.97
2023-03-28T02:07:24.696Z,8.27
2023-03-28T02:09:57.517Z,4.27
2023-03-28T02:12:31.953Z,7.87
2023-03-28T02:15:04.987Z,13.10
2023-03-28T02:17:39.419Z,7.37
2023-03-28T02:20:11.814Z,4.00
2023-03-28T02:22:46.480Z,4.97
2023-03-28T02:25:16.647Z,4.93
2023-03-28T02:27:47.344Z,4.53
2023-03-28T02:30:16.235Z,4.43
2023-03-28T02:32:50.448Z,3.70
2023-03-28T02:35:25.133Z,2.40
2023-03-28T02:37:58.751Z,9.20
2023-03-28T02:40:41.646Z,2.80
2023-03-28T02:43:28.881Z,2.10
2023-03-28T02:46:20.981Z,4.03
2023-03-28T02:49:03.086Z,2.60
2023-03-28T02:51:36.888Z,2.17
2023-03-28T02:54:19.789Z,2.90
2023-03-28T02:57:01.157Z,3.30
2023-03-28T02:59:36.120Z,2.70
2023-03-28T03:02:05.283Z,2.47
2023-03-28T03:04:33.799Z,2.00
2023-03-28T03:07:02.624Z,3.10
2023-03-28T03:09:31.208Z,2.83
2023-03-28T03:12:00.814Z,1.97
2023-03-28T03:14:29.398Z,1.43
2023-03-28T03:16:57.567Z,2.47
2023-03-28T03:19:26.379Z,2.83
2023-03-28T03:21:55.360Z,2.70
2023-03-28T03:24:25.070Z,2.43
2023-03-28T03:26:53.512Z,2.70
2023-03-28T03:29:23.317Z,5.93
2023-03-28T03:31:51.738Z,1.87
2023-03-28T03:34:20.881Z,1.77
2023-03-28T03:36:50.006Z,1.97
2023-03-28T03:39:18.709Z,1.87
2023-03-28T03:41:46.848Z,1.37
2023-03-28T03:44:15.421Z,2.47
2023-03-28T03:46:45.379Z,2.37
2023-03-28T03:49:14.207Z,2.20
2023-03-28T03:51:42.372Z,1.67
2023-03-28T03:54:11.701Z,2.10
2023-03-28T03:56:40.007Z,2.13
2023-03-28T03:59:08.533Z,3.27
2023-03-28T04:01:39.486Z,4.63
2023-03-28T04:04:09.781Z,2.13
2023-03-28T04:06:38.793Z,3.37
2023-03-28T04:09:07.887Z,2.20
2023-03-28T04:11:36.377Z,1.67
2023-03-28T04:14:05.518Z,2.77
2023-03-28T04:16:40.729Z,3.03
2023-03-28T04:19:13.919Z,3.83
2023-03-28T04:21:43.063Z,3.33
2023-03-28T04:24:15.440Z,3.13
2023-03-28T04:26:45.981Z,2.10
2023-03-28T04:29:14.726Z,2.73
2023-03-28T04:31:50.509Z,2.00
2023-03-28T04:34:25.630Z,2.00
2023-03-28T04:36:53.934Z,1.83
2023-03-28T04:39:22.859Z,1.63
2023-03-28T04:41:55.582Z,2.70
2023-03-28T04:44:24.571Z,5.70
2023-03-28T04:46:52.950Z,3.07
2023-03-28T04:49:22.931Z,1.23
2023-03-28T04:51:51.695Z,1.43
2023-03-28T04:54:20.916Z,1.60
2023-03-28T04:56:49.520Z,3.30
2023-03-28T04:59:18.988Z,1.47
2023-03-28T05:01:50.110Z,3.07
2023-03-28T05:04:18.879Z,2.03
2023-03-28T05:06:50.230Z,1.30
2023-03-28T05:09:19.720Z,2.37
2023-03-28T05:11:48.102Z,3.03
2023-03-28T05:14:16.880Z,2.20
2023-03-28T05:16:45.102Z,2.27
2023-03-28T05:19:13.966Z,2.50
2023-03-28T05:21:42.267Z,1.80
2023-03-28T05:24:12.438Z,2.90
2023-03-28T05:26:40.684Z,1.70
2023-03-28T05:29:09.168Z,2.00
2023-03-28T05:31:37.832Z,1.63
2023-03-28T05:34:06.462Z,1.47
2023-03-28T05:36:35.113Z,2.73
2023-03-28T05:39:05.149Z,3.30
2023-03-28T05:41:34.870Z,1.93
2023-03-28T05:44:04.562Z,2.47
2023-03-28T05:46:32.844Z,2.60
2023-03-28T05:49:01.421Z,1.40
2023-03-28T05:51:29.742Z,1.37
2023-03-28T05:53:58.298Z,2.53
2023-03-28T05:56:26.565Z,1.83
2023-03-28T05:58:56.464Z,2.10
2023-03-28T06:01:29.143Z,1.83
2023-03-28T06:03:58.487Z,1.93
2023-03-28T06:06:27.537Z,1.67
2023-03-28T06:08:56.167Z,1.90
2023-03-28T06:11:24.502Z,1.90
2023-03-28T06:13:53.387Z,1.30
2023-03-28T06:16:30.471Z,2.07
2023-03-28T06:19:14.400Z,1.40
2023-03-28T06:21:45.770Z,1.63
2023-03-28T06:24:14.587Z,1.37
2023-03-28T06:26:43.075Z,2.60
2023-03-28T06:29:12.137Z,2.37
2023-03-28T06:31:41.780Z,1.87
2023-03-28T06:34:10.925Z,1.70
2023-03-28T06:36:39.723Z,2.10
2023-03-28T06:39:08.362Z,0.87
2023-03-28T06:41:36.783Z,1.10
2023-03-28T06:44:05.946Z,2.03
2023-03-28T06:46:34.558Z,3.60
2023-03-28T06:49:04.487Z,2.10
2023-03-28T06:51:33.135Z,1.33
2023-03-28T06:54:02.000Z,1.90
2023-03-28T06:56:30.538Z,1.30
2023-03-28T06:58:59.129Z,1.33
2023-03-28T07:01:27.634Z,1.80
2023-03-28T07:03:59.657Z,2.17
2023-03-28T07:06:35.728Z,3.27
2023-03-28T07:09:06.339Z,1.67
2023-03-28T07:11:35.399Z,1.73
2023-03-28T07:14:04.012Z,3.43
2023-03-28T07:16:32.604Z,2.40
2023-03-28T07:19:01.396Z,1.30
2023-03-28T07:21:31.117Z,2.83
2023-03-28T07:23:59.699Z,2.27
2023-03-28T07:26:28.389Z,2.60
2023-03-28T07:28:57.314Z,1.27
2023-03-28T07:31:28.470Z,2.92
2023-03-28T07:33:58.222Z,2.13
2023-03-28T07:36:28.981Z,2.28
2023-03-28T07:38:58.956Z,1.25
2023-03-28T07:41:27.515Z,1.03
2023-03-28T07:43:56.408Z,1.88
2023-03-28T07:46:25.898Z,1.42
2023-03-28T07:49:00.871Z,2.75
2023-03-28T07:51:29.267Z,1.83
2023-03-28T07:53:59.720Z,1.83
2023-03-28T07:56:28.327Z,1.57
2023-03-28T07:58:56.947Z,2.75
2023-03-28T08:01:26.394Z,2.50
2023-03-28T08:03:55.095Z,1.65
2023-03-28T08:06:32.234Z,3.38
2023-03-28T08:09:02.721Z,6.18
2023-03-28T08:11:31.191Z,7.53
2023-03-28T08:13:59.767Z,0.95
2023-03-28T08:16:28.608Z,0.90
2023-03-28T08:19:09.986Z,1.08
2023-03-28T08:21:39.968Z,1.25
2023-03-28T08:24:12.936Z,0.90
2023-03-28T08:26:48.627Z,2.27
2023-03-28T08:29:17.637Z,1.48
2023-03-28T08:31:46.219Z,0.90
2023-03-28T08:34:15.128Z,0.90
2023-03-28T08:36:43.349Z,5.75
2023-03-28T08:39:13.273Z,7.60
2023-03-28T08:41:57.129Z,0.93
2023-03-28T08:45:04.055Z,1.17
2023-03-28T08:47:34.319Z,0.93
2023-03-28T08:50:12.358Z,1.88
2023-03-28T08:52:42.833Z,1.08
2023-03-28T08:55:25.073Z,6.50
2023-03-28T08:57:56.361Z,1.83
2023-03-28T09:00:28.599Z,1.50
2023-03-28T09:02:57.323Z,1.23
2023-03-28T09:05:36.681Z,1.47
2023-03-28T09:08:20.179Z,1.67
2023-03-28T09:10:57.840Z,2.63
2023-03-28T09:13:37.002Z,1.33
2023-03-28T09:16:20.123Z,2.75
2023-03-28T09:19:12.362Z,1.40
2023-03-28T09:21:59.593Z,2.72
2023-03-28T09:24:48.093Z,1.00
2023-03-28T09:27:25.307Z,1.60
2023-03-28T09:29:57.876Z,1.50
2023-03-28T09:32:33.939Z,0.90
2023-03-28T09:35:03.090Z,7.35
2023-03-28T09:37:36.602Z,1.33
2023-03-28T09:40:14.714Z,1.30
2023-03-28T09:42:53.221Z,2.53
2023-03-28T09:45:35.072Z,1.20
2023-03-28T09:48:05.105Z,2.35
2023-03-28T09:50:33.848Z,1.90
2023-03-28T09:53:02.694Z,0.98
2023-03-28T09:55:32.470Z,1.57
2023-03-28T09:58:04.424Z,0.90
2023-03-28T10:00:36.587Z,5.35
2023-03-28T10:03:08.271Z,1.55
2023-03-28T10:05:40.832Z,1.33
2023-03-28T10:08:23.928Z,0.75
2023-03-28T10:11:02.359Z,0.80
2023-03-28T10:13:38.995Z,1.38
2023-03-28T10:16:08.911Z,2.58
2023-03-28T10:18:40.604Z,9.50
2023-03-28T10:21:15.317Z,12.35
2023-03-28T10:23:50.932Z,10.70
2023-03-28T10:26:23.727Z,17.65
2023-03-28T10:28:55.694Z,66.27
2023-03-28T10:31:29.778Z,21.17
2023-03-28T10:34:00.366Z,23.63
2023-03-28T10:36:31.454Z,91.28
2023-03-28T10:39:01.392Z,30.57
2023-03-28T10:41:30.809Z,22.93
2023-03-28T10:44:01.249Z,20.80
2023-03-28T10:46:33.920Z,14.55
2023-03-28T10:49:06.021Z,9.27
2023-03-28T10:51:38.779Z,10.70
2023-03-28T10:54:50.477Z,5.10
2023-03-28T10:57:26.744Z,39.30
2023-03-28T11:00:06.762Z,89.40
2023-03-28T11:02:58.957Z,122.10
2023-03-28T11:05:36.017Z,54.40
2023-03-28T11:08:21.877Z,44.80
2023-03-28T11:10:58.783Z,35.70
2023-03-28T11:13:35.143Z,28.87
2023-03-28T11:16:15.414Z,17.98
2023-03-28T11:18:57.499Z,13.33
2023-03-28T11:21:32.999Z,13.13
2023-03-28T11:24:12.186Z,15.27
2023-03-28T11:26:51.457Z,10.43
2023-03-28T11:29:40.443Z,13.23
2023-03-28T11:32:19.591Z,13.00
2023-03-28T11:35:07.224Z,5.47
2023-03-28T11:37:41.097Z,8.18
2023-03-28T11:40:18.653Z,7.70
2023-03-28T11:42:52.397Z,5.83
2023-03-28T11:45:46.683Z,2.60
2023-03-28T11:48:24.506Z,4.60
2023-03-28T11:51:03.276Z,5.40
2023-03-28T11:53:38.676Z,2.63
2023-03-28T11:56:16.927Z,2.70
2023-03-28T11:58:48.210Z,4.15
2023-03-28T12:01:19.947Z,3.60
2023-03-28T12:04:01.310Z,4.77
2023-03-28T12:06:34.975Z,2.57
2023-03-28T12:09:12.524Z,2.33
2023-03-28T12:11:46.590Z,4.17
2023-03-28T12:14:34.676Z,3.47
2023-03-28T12:17:10.452Z,5.93
2023-03-28T12:19:41.812Z,3.67
2023-03-28T12:22:18.862Z,6.63
2023-03-28T12:24:54.741Z,8.35
2023-03-28T12:27:37.098Z,10.17
2023-03-28T12:30:13.659Z,21.03
2023-03-28T12:32:51.160Z,5.50
2023-03-28T12:35:27.121Z,5.20
2023-03-28T12:38:06.962Z,10.33
2023-03-28T12:40:53.013Z,2.53
2023-03-28T12:43:26.077Z,3.70
2023-03-28T12:46:01.273Z,2.15
2023-03-28T12:48:35.146Z,4.38
2023-03-28T12:51:12.591Z,2.42
2023-03-28T12:54:00.359Z,2.27
2023-03-28T12:56:29.542Z,1.63
2023-03-28T12:58:57.931Z,1.13
2023-03-28T13:01:36.669Z,2.17
2023-03-28T13:04:23.345Z,2.73
2023-03-28T13:07:05.477Z,1.70
2023-03-28T13:09:57.168Z,1.33
2023-03-28T13:12:32.613Z,7.30
2023-03-28T13:15:03.270Z,3.07
2023-03-28T13:17:35.119Z,2.97
2023-03-28T13:20:09.997Z,2.17
2023-03-28T13:22:50.333Z,3.57
2023-03-28T13:25:32.322Z,9.83
2023-03-28T13:28:02.675Z,4.37
2023-03-28T13:30:32.407Z,5.33
2023-03-28T13:33:04.013Z,5.13
2023-03-28T13:35:47.176Z,8.97
2023-03-28T13:38:35.061Z,12.00
2023-03-28T13:41:06.612Z,61.58
2023-03-28T13:43:43.510Z,40.63
2023-03-28T13:46:16.215Z,25.27
2023-03-28T13:48:50.967Z,21.87
2023-03-28T13:51:23.942Z,33.10
2023-03-28T13:53:54.276Z,27.55
2023-03-28T13:56:28.950Z,26.92
2023-03-28T13:59:02.985Z,51.17
2023-03-28T14:01:36.453Z,26.27
2023-03-28T14:04:12.299Z,32.43
2023-03-28T14:06:42.240Z,21.85
2023-03-28T14:09:19.441Z,16.77
2023-03-28T14:11:48.924Z,18.58
2023-03-28T14:14:23.567Z,48.63
2023-03-28T14:16:52.753Z,23.40
2023-03-28T14:19:24.980Z,26.80
2023-03-28T14:21:54.740Z,19.33
2023-03-28T14:24:27.934Z,21.73
2023-03-28T14:27:07.054Z,15.38
2023-03-28T14:29:35.675Z,14.07
2023-03-28T14:32:25.675Z,29.23
2023-03-28T14:34:56.467Z,24.63
2023-03-28T14:37:25.736Z,26.87
2023-03-28T14:39:56.461Z,24.03
2023-03-28T14:42:28.497Z,22.67
2023-03-28T14:44:57.218Z,27.77
2023-03-28T14:47:29.092Z,25.20
2023-03-28T14:49:58.266Z,36.50
2023-03-28T14:52:30.201Z,23.85
2023-03-28T14:55:01.913Z,12.75
2023-03-28T14:57:31.226Z,14.45
2023-03-28T15:00:01.224Z,15.57
2023-03-28T15:02:35.133Z,11.38
2023-03-28T15:05:07.780Z,8.30
2023-03-28T15:07:37.979Z,9.25
2023-03-28T15:10:11.227Z,10.77
2023-03-28T15:12:46.806Z,11.48
2023-03-28T15:15:18.620Z,11.02
2023-03-28T15:17:47.503Z,20.98
2023-03-28T15:20:20.059Z,41.08
2023-03-28T15:22:51.834Z,62.90
2023-03-28T15:25:22.311Z,63.08
2023-03-28T15:27:56.051Z,59.95
2023-03-28T15:30:25.816Z,74.15
2023-03-28T15:33:01.284Z,56.00
2023-03-28T15:35:33.192Z,44.92
2023-03-28T15:38:03.260Z,50.88
2023-03-28T15:40:38.949Z,31.17
2023-03-28T15:43:08.051Z,30.27
2023-03-28T15:45:43.120Z,49.80
2023-03-28T15:48:17.633Z,48.95
2023-03-28T15:50:51.515Z,46.47
2023-03-28T15:53:21.008Z,37.15
2023-03-28T15:55:51.632Z,44.42
2023-03-28T15:58:23.308Z,30.57
2023-03-28T16:00:53.869Z,25.55
2023-03-28T16:03:35.793Z,21.23
2023-03-28T16:06:30.870Z,14.67
2023-03-28T16:09:16.296Z,11.10
2023-03-28T16:11:48.015Z,12.27
2023-03-28T16:14:19.315Z,14.17
2023-03-28T16:16:48.089Z,10.40
2023-03-28T16:19:21.008Z,13.87
2023-03-28T16:21:49.785Z,10.53
2023-03-28T16:24:19.785Z,14.63
2023-03-28T16:26:49.965Z,9.23
2023-03-28T16:29:18.232Z,10.40
2023-03-28T16:31:46.763Z,25.63
2023-03-28T16:34:15.129Z,27.47
2023-03-28T16:36:43.678Z,19.63
2023-03-28T16:39:12.399Z,17.67
2023-03-28T16:41:40.956Z,25.07
2023-03-28T16:44:11.227Z,17.70
2023-03-28T16:46:39.864Z,12.23
2023-03-28T16:49:08.303Z,12.97
2023-03-28T16:51:36.903Z,10.27
2023-03-28T16:54:05.481Z,14.23
2023-03-28T16:56:34.103Z,13.70
2023-03-28T16:59:04.076Z,22.67
2023-03-28T17:01:34.417Z,14.93
2023-03-28T17:04:02.760Z,17.27
2023-03-28T17:06:31.458Z,23.73
2023-03-28T17:08:59.772Z,14.43
2023-03-28T17:11:28.761Z,15.77
2023-03-28T17:13:57.818Z,22.17
2023-03-28T17:16:27.359Z,21.43
2023-03-28T17:18:57.061Z,35.33
2023-03-28T17:21:25.555Z,40.40
2023-03-28T17:23:55.382Z,41.20
2023-03-28T17:26:23.868Z,51.00
2023-03-28T17:28:52.297Z,35.17
2023-03-28T17:31:21.883Z,38.37
2023-03-28T17:33:50.482Z,40.77
2023-03-28T17:36:22.709Z,39.10
2023-03-28T17:38:51.948Z,30.47
2023-03-28T17:41:23.114Z,31.57
2023-03-28T17:43:52.142Z,39.53
2023-03-28T17:46:21.432Z,28.30
2023-03-28T17:48:49.959Z,34.57
2023-03-28T17:51:20.587Z,25.93
2023-03-28T17:53:48.789Z,23.13
2023-03-28T17:56:18.166Z,17.57
2023-03-28T17:58:47.668Z,25.87
2023-03-28T18:01:18.602Z,26.43
2023-03-28T18:03:47.228Z,20.83
2023-03-28T18:06:15.878Z,17.93
2023-03-28T18:08:45.520Z,19.97
2023-03-28T18:11:17.752Z,17.23
2023-03-28T18:13:46.678Z,14.00
2023-03-28T18:16:18.138Z,16.50
2023-03-28T18:18:46.749Z,12.33
2023-03-28T18:21:15.641Z,22.30
2023-03-28T18:23:45.504Z,26.37
2023-03-28T18:26:14.125Z,25.73
2023-03-28T18:28:42.873Z,19.13
2023-03-28T18:31:13.507Z,25.37
2023-03-28T18:33:42.941Z,21.77
2023-03-28T18:36:12.301Z,21.40
2023-03-28T18:38:42.344Z,21.93
2023-03-28T18:41:13.491Z,18.67
2023-03-28T18:43:43.422Z,20.53
2023-03-28T18:46:16.009Z,14.17
2023-03-28T18:48:45.482Z,13.77
2023-03-28T18:51:14.159Z,24.80
2023-03-28T18:53:42.406Z,21.53
2023-03-28T18:56:13.525Z,18.73
2023-03-28T18:58:41.918Z,12.10
2023-03-28T19:01:11.484Z,20.17
2023-03-28T19:03:42.443Z,14.70
2023-03-28T19:06:12.801Z,15.57
2023-03-28T19:08:41.470Z,21.33
2023-03-28T19:11:13.273Z,12.60
2023-03-28T19:13:42.638Z,16.53
2023-03-28T19:16:13.444Z,14.53
2023-03-28T19:18:43.789Z,16.40
2023-03-28T19:21:13.130Z,21.27
2023-03-28T19:23:41.923Z,16.00
2023-03-28T19:26:13.634Z,13.77
2023-03-28T19:28:41.972Z,18.80
2023-03-28T19:31:12.875Z,18.00
2023-03-28T19:33:41.719Z,18.73
2023-03-28T19:36:10.932Z,18.17
2023-03-28T19:38:40.359Z,20.60
2023-03-28T19:41:15.703Z,33.50
2023-03-28T19:43:46.263Z,17.67
2023-03-28T19:46:19.743Z,19.07
2023-03-28T19:48:48.042Z,20.23
2023-03-28T19:51:16.907Z,16.60
2023-03-28T19:53:45.136Z,16.80
2023-03-28T19:56:14.195Z,15.47
2023-03-28T19:58:42.483Z,18.30
2023-03-28T20:01:12.800Z,10.40
2023-03-28T20:03:41.320Z,11.70
2023-03-28T20:06:13.019Z,18.20
2023-03-28T20:08:42.739Z,14.17
2023-03-28T20:11:12.822Z,11.00
2023-03-28T20:13:41.622Z,18.23
2023-03-28T20:16:13.471Z,9.70
2023-03-28T20:18:42.705Z,10.57
2023-03-28T20:21:13.161Z,15.47
2023-03-28T20:23:41.968Z,11.97
2023-03-28T20:26:16.114Z,8.37
2023-03-28T20:28:46.246Z,7.47
2023-03-28T20:31:18.798Z,9.27
2023-03-28T20:33:47.111Z,11.17
2023-03-28T20:36:15.978Z,10.10
2023-03-28T20:38:44.278Z,7.07
2023-03-28T20:41:13.345Z,6.70
2023-03-28T20:43:46.478Z,10.50
2023-03-28T20:46:19.122Z,8.93
2023-03-28T20:48:52.843Z,10.17
2023-03-28T20:51:23.603Z,9.47
2023-03-28T20:53:58.639Z,7.80
2023-03-28T20:56:29.088Z,7.47
2023-03-28T20:58:59.612Z,13.63
2023-03-28T21:01:33.095Z,11.47
2023-03-28T21:04:02.311Z,12.63
2023-03-28T21:06:36.053Z,9.53
2023-03-28T21:09:06.999Z,20.27
2023-03-28T21:11:37.335Z,13.93
2023-03-28T21:14:06.566Z,12.63
2023-03-28T21:16:37.571Z,14.90
2023-03-28T21:19:06.140Z,13.93
2023-03-28T21:21:34.671Z,14.27
2023-03-28T21:24:04.054Z,10.27
2023-03-28T21:26:32.694Z,8.90
2023-03-28T21:29:01.119Z,7.67
2023-03-28T21:31:30.894Z,14.40
2023-03-28T21:34:01.028Z,8.77
2023-03-28T21:36:29.995Z,14.10
2023-03-28T21:38:58.374Z,7.40
2023-03-28T21:41:27.973Z,8.27
2023-03-28T21:43:56.783Z,7.40
2023-03-28T21:46:25.731Z,9.70
2023-03-28T21:48:54.141Z,9.40
2023-03-28T21:51:24.021Z,7.60
2023-03-28T21:53:52.292Z,9.80
2023-03-28T21:56:21.335Z,4.27
2023-03-28T21:58:49.514Z,12.57
2023-03-28T22:01:18.587Z,9.30
2023-03-28T22:03:47.203Z,13.50
2023-03-28T22:06:17.664Z,5.83
2023-03-28T22:08:51.961Z,7.57
2023-03-28T22:11:27.413Z,8.73
2023-03-28T22:14:01.233Z,11.10
2023-03-28T22:16:31.315Z,10.17
2023-03-28T22:19:00.840Z,14.67
2023-03-28T22:21:31.522Z,6.20
2023-03-28T22:24:03.436Z,9.10
2023-03-28T22:26:32.240Z,8.80
2023-03-28T22:29:00.535Z,12.87
2023-03-28T22:31:29.485Z,8.73
2023-03-28T22:33:57.770Z,5.77
2023-03-28T22:36:26.297Z,6.13
2023-03-28T22:38:55.429Z,8.83
2023-03-28T22:41:25.473Z,9.53
2023-03-28T22:43:53.666Z,7.60
2023-03-28T22:46:22.280Z,8.43
2023-03-28T22:48:54.394Z,7.10
2023-03-28T22:51:27.805Z,7.63
2023-03-28T22:54:00.323Z,12.40
2023-03-28T22:56:30.670Z,8.20
2023-03-28T22:59:01.213Z,9.50
2023-03-28T23:01:30.236Z,7.77
2023-03-28T23:03:58.705Z,19.50
2023-03-28T23:06:27.256Z,6.60
2023-03-28T23:08:55.473Z,10.63
2023-03-28T23:11:23.912Z,6.23
2023-03-28T23:13:53.549Z,8.47
2023-03-28T23:16:22.104Z,8.73
2023-03-28T23:18:50.794Z,6.43
2023-03-28T23:21:19.568Z,7.43
2023-03-28T23:23:48.292Z,8.33
2023-03-28T23:26:16.823Z,6.33
2023-03-28T23:28:45.202Z,5.90
2023-03-28T23:31:15.458Z,9.90
2023-03-28T23:33:44.639Z,3.90
2023-03-28T23:36:14.114Z,6.53
2023-03-28T23:38:42.784Z,6.20
2023-03-28T23:41:11.239Z,6.83
2023-03-28T23:43:39.578Z,12.73
2023-03-28T23:46:09.084Z,8.33
2023-03-28T23:48:38.721Z,5.53
2023-03-28T23:51:07.988Z,7.37
2023-03-28T23:53:36.889Z,6.30
2023-03-28T23:56:06.070Z,6.70
2023-03-28T23:58:34.558Z,16.43
